sensor_id;sensor_type;location;lat;lon;timestamp;pressure;altitude;pressure_sealevel;temperature;humidity
60427;BME280;46274;47.168;27.604;2022-08-21T00:02:33;99526.66;;;24.45;66.70
60427;BME280;46274;47.168;27.604;2022-08-21T00:08:35;99534.06;;;24.44;66.47
60427;BME280;46274;47.168;27.604;2022-08-21T00:14:36;99531.03;;;24.51;66.39
60427;BME280;46274;47.168;27.604;2022-08-21T00:20:39;99520.53;;;24.48;66.32
60427;BME280;46274;47.168;27.604;2022-08-21T00:26:41;99514.44;;;24.51;66.86
60427;BME280;46274;47.168;27.604;2022-08-21T00:32:44;99502.78;;;24.49;66.45
60427;BME280;46274;47.168;27.604;2022-08-21T00:38:46;99500.59;;;24.41;66.78
60427;BME280;46274;47.168;27.604;2022-08-21T00:44:49;99480.94;;;24.37;66.75
60427;BME280;46274;47.168;27.604;2022-08-21T00:50:58;99497.53;;;24.47;66.52
60427;BME280;46274;47.168;27.604;2022-08-21T00:57:05;99492.81;;;24.43;66.50
60427;BME280;46274;47.168;27.604;2022-08-21T01:03:14;99483.41;;;24.44;66.36
60427;BME280;46274;47.168;27.604;2022-08-21T01:09:16;99463.47;;;24.36;66.27
60427;BME280;46274;47.168;27.604;2022-08-21T01:15:19;99463.47;;;24.42;66.39
60427;BME280;46274;47.168;27.604;2022-08-21T01:21:24;99464.03;;;24.38;66.42
60427;BME280;46274;47.168;27.604;2022-08-21T01:27:28;99441.91;;;24.33;66.42
60427;BME280;46274;47.168;27.604;2022-08-21T01:33:30;99454.91;;;24.38;66.56
60427;BME280;46274;47.168;27.604;2022-08-21T01:39:33;99449.13;;;24.34;66.78
60427;BME280;46274;47.168;27.604;2022-08-21T01:45:35;99436.97;;;24.25;66.47
60427;BME280;46274;47.168;27.604;2022-08-21T01:51:37;99441.34;;;24.36;66.29
60427;BME280;46274;47.168;27.604;2022-08-21T01:57:39;99406.53;;;24.15;66.38
60427;BME280;46274;47.168;27.604;2022-08-21T02:03:40;99422.59;;;24.18;66.47
60427;BME280;46274;47.168;27.604;2022-08-21T02:09:42;99431.19;;;24.16;66.29
60427;BME280;46274;47.168;27.604;2022-08-21T02:15:44;99451.88;;;24.34;66.49
60427;BME280;46274;47.168;27.604;2022-08-21T02:21:46;99436.41;;;24.23;66.26
60427;BME280;46274;47.168;27.604;2022-08-21T02:27:48;99432.25;;;24.21;66.44
60427;BME280;46274;47.168;27.604;2022-08-21T02:33:51;99437.53;;;24.17;66.05
60427;BME280;46274;47.168;27.604;2022-08-21T02:39:52;99445.00;;;24.27;66.20
60427;BME280;46274;47.168;27.604;2022-08-21T02:45:55;99451.63;;;24.26;66.46
60427;BME280;46274;47.168;27.604;2022-08-21T02:51:57;99457.16;;;24.26;66.39
60427;BME280;46274;47.168;27.604;2022-08-21T02:57:59;99451.91;;;24.24;66.45
60427;BME280;46274;47.168;27.604;2022-08-21T03:04:01;99440.88;;;24.19;66.17
60427;BME280;46274;47.168;27.604;2022-08-21T03:10:05;99428.69;;;24.15;66.49
60427;BME280;46274;47.168;27.604;2022-08-21T03:16:07;99442.50;;;24.20;66.38
60427;BME280;46274;47.168;27.604;2022-08-21T03:22:11;99445.00;;;24.22;65.99
60427;BME280;46274;47.168;27.604;2022-08-21T03:28:15;99447.50;;;24.18;66.15
60427;BME280;46274;47.168;27.604;2022-08-21T03:34:17;99435.38;;;24.09;66.09
60427;BME280;46274;47.168;27.604;2022-08-21T03:40:19;99448.88;;;24.21;65.96
60427;BME280;46274;47.168;27.604;2022-08-21T03:46:22;99435.88;;;24.11;65.82
60427;BME280;46274;47.168;27.604;2022-08-21T03:52:23;99461.34;;;24.18;65.81
60427;BME280;46274;47.168;27.604;2022-08-21T03:58:28;99464.09;;;24.23;65.63
60427;BME280;46274;47.168;27.604;2022-08-21T04:04:30;99461.34;;;24.18;65.80
60427;BME280;46274;47.168;27.604;2022-08-21T04:10:34;99470.19;;;24.20;65.39
60427;BME280;46274;47.168;27.604;2022-08-21T04:16:36;99476.28;;;24.22;65.88
60427;BME280;46274;47.168;27.604;2022-08-21T04:22:38;99477.66;;;24.25;65.82
60427;BME280;46274;47.168;27.604;2022-08-21T04:28:40;99471.00;;;24.21;65.37
60427;BME280;46274;47.168;27.604;2022-08-21T04:34:44;99483.19;;;24.25;65.95
60427;BME280;46274;47.168;27.604;2022-08-21T04:40:47;99485.69;;;24.21;65.68
60427;BME280;46274;47.168;27.604;2022-08-21T04:46:50;99471.88;;;24.11;65.46
60427;BME280;46274;47.168;27.604;2022-08-21T04:52:52;99470.19;;;24.15;65.60
60427;BME280;46274;47.168;27.604;2022-08-21T04:58:56;99479.63;;;24.19;65.99
60427;BME280;46274;47.168;27.604;2022-08-21T05:04:59;99488.22;;;24.02;66.70
60427;BME280;46274;47.168;27.604;2022-08-21T05:11:02;99473.53;;;24.12;66.84
60427;BME280;46274;47.168;27.604;2022-08-21T05:17:04;99494.25;;;24.25;66.66
60427;BME280;46274;47.168;27.604;2022-08-21T05:23:08;99477.91;;;24.28;67.14
60427;BME280;46274;47.168;27.604;2022-08-21T05:29:11;99477.34;;;24.26;66.63
60427;BME280;46274;47.168;27.604;2022-08-21T05:35:13;99492.56;;;24.29;66.44
60427;BME280;46274;47.168;27.604;2022-08-21T05:41:15;99487.00;;;24.44;66.02
60427;BME280;46274;47.168;27.604;2022-08-21T05:47:17;99471.00;;;24.26;65.23
60427;BME280;46274;47.168;27.604;2022-08-21T05:53:20;99474.34;;;24.17;65.35
60427;BME280;46274;47.168;27.604;2022-08-21T05:59:22;99469.09;;;24.11;65.24
60427;BME280;46274;47.168;27.604;2022-08-21T06:05:24;99487.34;;;24.27;65.41
60427;BME280;46274;47.168;27.604;2022-08-21T06:11:37;99472.69;;;24.22;64.48
60427;BME280;46274;47.168;27.604;2022-08-21T06:17:39;99479.06;;;24.17;65.19
60427;BME280;46274;47.168;27.604;2022-08-21T06:23:41;99491.75;;;24.23;64.06
60427;BME280;46274;47.168;27.604;2022-08-21T06:29:44;99474.63;;;24.16;64.39
60427;BME280;46274;47.168;27.604;2022-08-21T06:35:46;99490.38;;;24.26;64.00
60427;BME280;46274;47.168;27.604;2022-08-21T06:41:48;99471.03;;;24.15;63.90
60427;BME280;46274;47.168;27.604;2022-08-21T06:47:50;99492.88;;;24.27;63.50
60427;BME280;46274;47.168;27.604;2022-08-21T06:53:52;99487.91;;;24.24;63.83
60427;BME280;46274;47.168;27.604;2022-08-21T06:59:54;99485.13;;;24.24;64.00
60427;BME280;46274;47.168;27.604;2022-08-21T07:05:56;99463.03;;;24.09;63.39
60427;BME280;46274;47.168;27.604;2022-08-21T07:12:02;99508.94;;;24.25;63.88
60427;BME280;46274;47.168;27.604;2022-08-21T07:18:04;99507.84;;;24.16;63.89
60427;BME280;46274;47.168;27.604;2022-08-21T07:24:06;99523.91;;;24.24;64.14
60427;BME280;46274;47.168;27.604;2022-08-21T07:30:08;99505.63;;;24.18;64.27
60427;BME280;46274;47.168;27.604;2022-08-21T07:36:10;99500.09;;;24.18;64.53
60427;BME280;46274;47.168;27.604;2022-08-21T07:42:12;99480.72;;;24.13;64.72
60427;BME280;46274;47.168;27.604;2022-08-21T07:48:15;99482.38;;;24.19;64.49
60427;BME280;46274;47.168;27.604;2022-08-21T07:54:17;99480.97;;;24.32;64.38
60427;BME280;46274;47.168;27.604;2022-08-21T08:00:30;99461.66;;;24.11;64.57
60427;BME280;46274;47.168;27.604;2022-08-21T08:06:32;99481.44;;;24.44;64.62
60427;BME280;46274;47.168;27.604;2022-08-21T08:12:36;99491.75;;;24.33;64.50
60427;BME280;46274;47.168;27.604;2022-08-21T08:18:40;99483.72;;;24.32;64.64
60427;BME280;46274;47.168;27.604;2022-08-21T08:24:43;99476.91;;;25.29;61.84
60427;BME280;46274;47.168;27.604;2022-08-21T08:30:45;99472.34;;;24.38;64.35
60427;BME280;46274;47.168;27.604;2022-08-21T08:36:47;99454.09;;;24.32;64.81
60427;BME280;46274;47.168;27.604;2022-08-21T08:42:51;99464.34;;;24.37;64.57
60427;BME280;46274;47.168;27.604;2022-08-21T08:48:59;99441.88;;;24.38;64.55
60427;BME280;46274;47.168;27.604;2022-08-21T08:55:08;99448.50;;;24.58;64.35
60427;BME280;46274;47.168;27.604;2022-08-21T09:01:17;99444.34;;;24.55;64.24
60427;BME280;46274;47.168;27.604;2022-08-21T09:08:14;99460.88;;;24.71;64.01
60427;BME280;46274;47.168;27.604;2022-08-21T09:27:12;99441.81;;;24.64;64.40
60427;BME280;46274;47.168;27.604;2022-08-21T09:33:14;99440.41;;;24.67;63.77
60427;BME280;46274;47.168;27.604;2022-08-21T09:39:39;99431.31;;;24.56;63.92
60427;BME280;46274;47.168;27.604;2022-08-21T09:45:47;99440.66;;;24.65;64.04
60427;BME280;46274;47.168;27.604;2022-08-21T09:51:51;99416.91;;;24.54;64.13
60427;BME280;46274;47.168;27.604;2022-08-21T09:57:54;99414.72;;;24.56;64.57
60427;BME280;46274;47.168;27.604;2022-08-21T10:04:08;99415.25;;;24.58;64.95
60427;BME280;46274;47.168;27.604;2022-08-21T10:10:31;99432.34;;;24.70;64.80
60427;BME280;46274;47.168;27.604;2022-08-21T10:17:01;99429.31;;;24.67;64.90
60427;BME280;46274;47.168;27.604;2022-08-21T10:29:31;99416.28;;;24.67;65.11
60427;BME280;46274;47.168;27.604;2022-08-21T10:35:44;99398.06;;;24.61;65.33
60427;BME280;46274;47.168;27.604;2022-08-21T10:42:17;99399.41;;;24.69;65.46
60427;BME280;46274;47.168;27.604;2022-08-21T10:48:37;99381.44;;;24.61;65.07
60427;BME280;46274;47.168;27.604;2022-08-21T10:54:50;99378.84;;;24.75;64.19
60427;BME280;46274;47.168;27.604;2022-08-21T11:01:04;99382.41;;;24.80;63.72
60427;BME280;46274;47.168;27.604;2022-08-21T11:07:22;99366.34;;;24.83;63.96
60427;BME280;46274;47.168;27.604;2022-08-21T11:19:52;99361.53;;;24.93;64.23
60427;BME280;46274;47.168;27.604;2022-08-21T11:26:05;99351.84;;;24.91;63.11
60427;BME280;46274;47.168;27.604;2022-08-21T11:38:41;99352.44;;;24.88;62.61
60427;BME280;46274;47.168;27.604;2022-08-21T11:44:49;99320.94;;;24.78;58.56
60427;BME280;46274;47.168;27.604;2022-08-21T11:50:56;99337.72;;;24.92;59.31
60427;BME280;46274;47.168;27.604;2022-08-21T11:57:22;99314.75;;;24.92;60.03
60427;BME280;46274;47.168;27.604;2022-08-21T12:03:53;99317.41;;;25.02;60.96
60427;BME280;46274;47.168;27.604;2022-08-21T12:09:57;99299.75;;;24.93;62.46
60427;BME280;46274;47.168;27.604;2022-08-21T12:16:10;99314.94;;;25.00;62.89
60427;BME280;46274;47.168;27.604;2022-08-21T12:22:13;99303.59;;;24.97;62.83
60427;BME280;46274;47.168;27.604;2022-08-21T12:28:22;99309.16;;;24.97;62.49
60427;BME280;46274;47.168;27.604;2022-08-21T12:34:38;99279.81;;;24.91;62.88
60427;BME280;46274;47.168;27.604;2022-08-21T12:41:01;99290.56;;;24.97;62.96
60427;BME280;46274;47.168;27.604;2022-08-21T12:47:17;99267.09;;;24.90;62.68
60427;BME280;46274;47.168;27.604;2022-08-21T12:59:29;99282.50;;;25.01;62.54
60427;BME280;46274;47.168;27.604;2022-08-21T13:05:35;99262.69;;;24.89;63.06
60427;BME280;46274;47.168;27.604;2022-08-21T13:11:40;99267.59;;;24.97;62.91
60427;BME280;46274;47.168;27.604;2022-08-21T13:17:47;99273.66;;;24.99;62.84
60427;BME280;46274;47.168;27.604;2022-08-21T13:23:50;99269.22;;;24.98;62.83
60427;BME280;46274;47.168;27.604;2022-08-21T13:30:08;99275.34;;;24.95;62.92
60427;BME280;46274;47.168;27.604;2022-08-21T13:36:24;99241.59;;;24.88;63.25
60427;BME280;46274;47.168;27.604;2022-08-21T13:42:27;99245.16;;;24.93;63.36
60427;BME280;46274;47.168;27.604;2022-08-21T13:48:32;99243.47;;;24.97;62.59
60427;BME280;46274;47.168;27.604;2022-08-21T13:54:37;99237.50;;;25.09;62.65
60427;BME280;46274;47.168;27.604;2022-08-21T14:00:49;99244.00;;;25.29;57.29
60427;BME280;46274;47.168;27.604;2022-08-21T14:06:52;99251.19;;;25.78;55.27
60427;BME280;46274;47.168;27.604;2022-08-21T14:13:01;99246.06;;;25.90;53.37
60427;BME280;46274;47.168;27.604;2022-08-21T14:25:08;99269.69;;;25.87;53.46
60427;BME280;46274;47.168;27.604;2022-08-21T14:31:17;99264.75;;;26.22;51.09
60427;BME280;46274;47.168;27.604;2022-08-21T14:37:19;99269.88;;;26.15;50.89
60427;BME280;46274;47.168;27.604;2022-08-21T14:43:21;99261.66;;;25.62;55.46
60427;BME280;46274;47.168;27.604;2022-08-21T14:49:25;99263.06;;;25.35;57.77
60427;BME280;46274;47.168;27.604;2022-08-21T14:55:28;99258.69;;;25.29;58.14
60427;BME280;46274;47.168;27.604;2022-08-21T15:01:32;99248.53;;;25.19;59.08
60427;BME280;46274;47.168;27.604;2022-08-21T15:07:34;99246.88;;;25.18;59.57
60427;BME280;46274;47.168;27.604;2022-08-21T15:13:36;99248.03;;;25.12;60.32
60427;BME280;46274;47.168;27.604;2022-08-21T15:19:39;99245.53;;;25.11;60.67
60427;BME280;46274;47.168;27.604;2022-08-21T15:25:42;99227.59;;;25.03;60.87
60427;BME280;46274;47.168;27.604;2022-08-21T15:31:57;99244.72;;;25.10;61.42
60427;BME280;46274;47.168;27.604;2022-08-21T15:37:59;99236.47;;;25.05;61.68
60427;BME280;46274;47.168;27.604;2022-08-21T15:44:02;99243.38;;;25.08;61.94
60427;BME280;46274;47.168;27.604;2022-08-21T15:50:06;99253.03;;;25.10;62.01
60427;BME280;46274;47.168;27.604;2022-08-21T15:56:21;99240.81;;;25.11;61.96
60427;BME280;46274;47.168;27.604;2022-08-21T16:02:29;99237.06;;;25.02;62.31
60427;BME280;46274;47.168;27.604;2022-08-21T16:08:31;99234.88;;;24.99;62.33
60427;BME280;46274;47.168;27.604;2022-08-21T16:14:34;99234.31;;;24.97;62.62
60427;BME280;46274;47.168;27.604;2022-08-21T16:20:37;99254.50;;;25.02;62.40
60427;BME280;46274;47.168;27.604;2022-08-21T16:26:39;99233.25;;;24.93;63.01
60427;BME280;46274;47.168;27.604;2022-08-21T16:32:43;99238.03;;;24.87;62.60
60427;BME280;46274;47.168;27.604;2022-08-21T16:38:45;99272.31;;;24.96;63.17
60427;BME280;46274;47.168;27.604;2022-08-21T16:44:48;99290.34;;;24.94;63.09
60427;BME280;46274;47.168;27.604;2022-08-21T16:50:51;99298.13;;;24.92;62.95
60427;BME280;46274;47.168;27.604;2022-08-21T16:56:53;99293.16;;;24.89;63.47
60427;BME280;46274;47.168;27.604;2022-08-21T17:02:55;99310.59;;;24.89;63.28
60427;BME280;46274;47.168;27.604;2022-08-21T17:08:58;99307.56;;;24.86;63.33
60427;BME280;46274;47.168;27.604;2022-08-21T17:15:17;99313.69;;;24.83;63.64
60427;BME280;46274;47.168;27.604;2022-08-21T17:21:22;99327.81;;;24.86;63.37
60427;BME280;46274;47.168;27.604;2022-08-21T17:27:24;99326.84;;;25.01;63.50
60427;BME280;46274;47.168;27.604;2022-08-21T17:33:32;99308.94;;;24.88;62.86
60427;BME280;46274;47.168;27.604;2022-08-21T17:39:35;99319.94;;;24.64;64.78
60427;BME280;46274;47.168;27.604;2022-08-21T17:45:37;99302.41;;;24.29;65.65
60427;BME280;46274;47.168;27.604;2022-08-21T17:51:39;99325.25;;;24.55;64.81
60427;BME280;46274;47.168;27.604;2022-08-21T17:57:42;99335.06;;;24.77;64.56
60427;BME280;46274;47.168;27.604;2022-08-21T18:03:46;99336.44;;;24.79;64.20
60427;BME280;46274;47.168;27.604;2022-08-21T18:09:48;99336.97;;;24.81;64.26
60427;BME280;46274;47.168;27.604;2022-08-21T18:15:50;99323.47;;;24.70;64.26
60427;BME280;46274;47.168;27.604;2022-08-21T18:21:53;99334.22;;;24.81;64.02
60427;BME280;46274;47.168;27.604;2022-08-21T18:27:56;99325.06;;;24.81;64.12
60427;BME280;46274;47.168;27.604;2022-08-21T18:34:00;99317.34;;;24.73;64.45
60427;BME280;46274;47.168;27.604;2022-08-21T18:40:05;99332.03;;;24.78;64.82
60427;BME280;46274;47.168;27.604;2022-08-21T18:46:09;99324.81;;;24.77;65.14
60427;BME280;46274;47.168;27.604;2022-08-21T18:52:11;99309.59;;;24.75;65.32
60427;BME280;46274;47.168;27.604;2022-08-21T18:58:20;99314.28;;;24.79;65.35
60427;BME280;46274;47.168;27.604;2022-08-21T19:04:22;99307.09;;;24.78;65.56
60427;BME280;46274;47.168;27.604;2022-08-21T19:10:45;99296.88;;;24.74;65.00
60427;BME280;46274;47.168;27.604;2022-08-21T19:16:47;99281.16;;;24.64;65.62
60427;BME280;46274;47.168;27.604;2022-08-21T19:22:50;99280.06;;;24.60;65.65
60427;BME280;46274;47.168;27.604;2022-08-21T19:28:56;99302.19;;;24.65;65.56
60427;BME280;46274;47.168;27.604;2022-08-21T19:35:00;99321.84;;;24.69;65.31
60427;BME280;46274;47.168;27.604;2022-08-21T19:41:03;99324.31;;;24.70;65.65
60427;BME280;46274;47.168;27.604;2022-08-21T19:47:13;99322.66;;;24.69;65.17
60427;BME280;46274;47.168;27.604;2022-08-21T19:53:19;99316.63;;;24.62;65.11
60427;BME280;46274;47.168;27.604;2022-08-21T19:59:22;99325.16;;;24.71;65.08
60427;BME280;46274;47.168;27.604;2022-08-21T20:05:25;99312.19;;;24.61;65.23
60427;BME280;46274;47.168;27.604;2022-08-21T20:11:44;99308.38;;;24.52;65.77
60427;BME280;46274;47.168;27.604;2022-08-21T20:17:47;99327.09;;;24.65;65.71
60427;BME280;46274;47.168;27.604;2022-08-21T20:23:50;99326.03;;;24.61;65.46
60427;BME280;46274;47.168;27.604;2022-08-21T20:29:51;99323.00;;;24.57;65.09
60427;BME280;46274;47.168;27.604;2022-08-21T20:35:53;99337.94;;;24.62;65.63
60427;BME280;46274;47.168;27.604;2022-08-21T20:41:56;99343.22;;;24.63;65.22
60427;BME280;46274;47.168;27.604;2022-08-21T20:48:10;99337.13;;;24.61;65.47
60427;BME280;46274;47.168;27.604;2022-08-21T20:54:36;99329.38;;;24.63;65.52
60427;BME280;46274;47.168;27.604;2022-08-21T21:00:41;99326.03;;;24.61;65.53
60427;BME280;46274;47.168;27.604;2022-08-21T21:06:50;99321.59;;;24.60;65.29
60427;BME280;46274;47.168;27.604;2022-08-21T21:13:09;99317.50;;;24.52;65.68
60427;BME280;46274;47.168;27.604;2022-08-21T21:25:44;99335.72;;;24.64;65.33
60427;BME280;46274;47.168;27.604;2022-08-21T21:31:54;99327.19;;;24.55;65.29
60427;BME280;46274;47.168;27.604;2022-08-21T22:03:40;99317.25;;;24.49;65.64
60427;BME280;46274;47.168;27.604;2022-08-21T22:09:50;99326.66;;;24.53;65.89
60427;BME280;46274;47.168;27.604;2022-08-21T22:15:56;99320.59;;;24.46;65.86
60427;BME280;46274;47.168;27.604;2022-08-21T22:22:19;99308.44;;;24.36;65.71
60427;BME280;46274;47.168;27.604;2022-08-21T22:28:25;99343.56;;;24.51;66.01
60427;BME280;46274;47.168;27.604;2022-08-21T22:34:29;99351.59;;;24.53;65.85
60427;BME280;46274;47.168;27.604;2022-08-21T22:40:34;99337.19;;;24.51;65.51
60427;BME280;46274;47.168;27.604;2022-08-21T22:46:52;99342.44;;;24.47;65.64
60427;BME280;46274;47.168;27.604;2022-08-21T22:53:02;99318.66;;;24.41;65.90
60427;BME280;46274;47.168;27.604;2022-08-21T22:59:21;99325.56;;;24.49;65.54
60427;BME280;46274;47.168;27.604;2022-08-21T23:05:35;99325.56;;;24.44;66.20
60427;BME280;46274;47.168;27.604;2022-08-21T23:11:40;99305.94;;;24.40;65.84
60427;BME280;46274;47.168;27.604;2022-08-21T23:43:58;99301.25;;;24.35;65.64
